Time;durP1;ratioP1;P1;durP2;ratioP2;P2;SDS_P1;SDS_P2;PMS_P1;PMS_P2;Temp;Humidity;BMP_temperature;BMP_pressure;BME280_temperature;BME280_humidity;BME280_pressure;Samples;Min_cycle;Max_cycle;Signal;HPM_P1;HPM_P2
2022/09/29 05:04:42;;;;;;;12.55;3.55;;;;;;;;;;4841061;24;20085;-65
2022/09/29 05:07:08;;;;;;;8.85;3.85;;;;;;;;;;4858030;29;20117;-63
2022/09/29 05:09:34;;;;;;;8.23;3.20;;;;;;;;;;4858297;29;20448;-65
2022/09/29 05:12:01;;;;;;;9.90;3.25;;;;;;;;;;4857977;29;20909;-63
2022/09/29 05:14:27;;;;;;;14.00;3.63;;;;;;;;;;4857683;29;20038;-63
2022/09/29 05:16:56;;;;;;;8.85;3.10;;;;;;;;;;4857916;29;20154;-63
2022/09/29 05:19:22;;;;;;;9.77;3.10;;;;;;;;;;4858362;29;20034;-63
2022/09/29 05:21:48;;;;;;;10.88;2.72;;;;;;;;;;4858536;29;20029;-62
2022/09/29 05:24:14;;;;;;;10.05;2.20;;;;;;;;;;4857917;29;20518;-62
2022/09/29 05:26:40;;;;;;;9.70;2.70;;;;;;;;;;4858028;29;20550;-63
2022/09/29 05:29:06;;;;;;;9.63;2.70;;;;;;;;;;4858071;29;20033;-62
2022/09/29 05:31:32;;;;;;;10.98;2.28;;;;;;;;;;4857906;29;20097;-63
2022/09/29 05:33:58;;;;;;;7.97;2.45;;;;;;;;;;4857892;29;20533;-62
2022/09/29 05:36:24;;;;;;;9.23;2.40;;;;;;;;;;4857782;29;20077;-62
2022/09/29 05:38:50;;;;;;;7.70;2.03;;;;;;;;;;4857439;29;20032;-64
2022/09/29 05:41:23;;;;;;;9.00;2.47;;;;;;;;;;4841176;29;20033;-64
2022/09/29 05:43:49;;;;;;;;;;;;;;;;;;4858538;29;20030;-63
2022/09/29 05:46:18;;;;;;;5.35;2.00;;;;;;;;;;4858018;29;19931;-63
2022/09/29 05:48:45;;;;;;;5.22;2.00;;;;;;;;;;4858104;29;20381;-63
2022/09/29 05:51:13;;;;;;;8.98;1.90;;;;;;;;;;4860646;29;20036;-64
2022/09/29 05:53:39;;;;;;;9.18;1.92;;;;;;;;;;4861189;29;20125;-64
2022/09/29 05:56:10;;;;;;;6.72;2.13;;;;;;;;;;4844532;29;20045;-65
2022/09/29 05:58:37;;;;;;;7.97;2.60;;;;;;;;;;4843315;29;20026;-64
2022/09/29 06:01:13;;;;;;;7.50;2.58;;;;;;;;;;4861049;29;20045;-65
2022/09/29 06:03:40;;;;;;;9.15;2.28;;;;;;;;;;4860760;29;20084;-64
2022/09/29 06:06:06;;;;;;;6.35;1.98;;;;;;;;;;4844189;29;20034;-65
2022/09/29 06:08:32;;;;;;;10.82;2.25;;;;;;;;;;4860966;29;20026;-64
2022/09/29 06:11:05;;;;;;;11.07;2.40;;;;;;;;;;4860846;29;20048;-64
2022/09/29 06:13:31;;;;;;;10.50;1.65;;;;;;;;;;4861452;29;20391;-63
2022/09/29 06:16:00;;;;;;;18.02;3.53;;;;;;;;;;4844254;29;20072;-64
2022/09/29 06:18:26;;;;;;;5.22;1.95;;;;;;;;;;4844002;29;20042;-63
2022/09/29 06:20:52;;;;;;;6.85;2.03;;;;;;;;;;4861362;29;20084;-63
2022/09/29 06:23:19;;;;;;;7.30;1.95;;;;;;;;;;4859834;29;20073;-63
2022/09/29 06:25:45;;;;;;;8.55;1.70;;;;;;;;;;4860847;29;20064;-63
2022/09/29 06:28:11;;;;;;;8.63;2.22;;;;;;;;;;4861094;29;20064;-63
2022/09/29 06:30:37;;;;;;;8.50;1.90;;;;;;;;;;4864938;29;20089;-63
2022/09/29 06:33:03;;;;;;;4.60;1.17;;;;;;;;;;4859832;29;20041;-63
2022/09/29 06:38:15;;;;;;;5.28;1.52;;;;;;;;;;4859723;29;20124;-62
2022/09/29 06:40:41;;;;;;;7.05;1.55;;;;;;;;;;4859882;29;20113;-63
2022/09/29 06:43:07;;;;;;;9.43;2.30;;;;;;;;;;4860545;29;20431;-63
2022/09/29 06:45:33;;;;;;;6.32;1.80;;;;;;;;;;4860211;29;20533;-63
2022/09/29 06:48:01;;;;;;;7.28;1.98;;;;;;;;;;4860214;29;20040;-62
2022/09/29 06:50:27;;;;;;;4.53;1.40;;;;;;;;;;4859927;29;20042;-61
2022/09/29 06:52:53;;;;;;;4.25;1.88;;;;;;;;;;4859335;29;20091;-63
2022/09/29 06:55:19;;;;;;;9.25;1.92;;;;;;;;;;4860390;29;20120;-63
2022/09/29 06:57:45;;;;;;;3.78;1.33;;;;;;;;;;4860354;29;20120;-63
2022/09/29 07:00:11;;;;;;;5.72;1.60;;;;;;;;;;4859837;29;20033;-63
2022/09/29 07:02:37;;;;;;;6.63;2.17;;;;;;;;;;4859739;29;20658;-62
2022/09/29 07:05:03;;;;;;;7.95;2.20;;;;;;;;;;4860252;29;20045;-63
2022/09/29 07:07:29;;;;;;;4.72;1.70;;;;;;;;;;4842832;29;20770;-63
2022/09/29 07:09:55;;;;;;;3.65;1.80;;;;;;;;;;4859991;29;20117;-69
2022/09/29 07:12:22;;;;;;;6.43;1.70;;;;;;;;;;4859895;29;20060;-63
2022/09/29 07:14:48;;;;;;;6.22;1.35;;;;;;;;;;4859791;29;20038;-63
2022/09/29 07:17:14;;;;;;;6.05;1.52;;;;;;;;;;4859849;29;20546;-63
2022/09/29 07:19:40;;;;;;;7.75;1.85;;;;;;;;;;4859918;29;20116;-63
2022/09/29 07:22:08;;;;;;;6.55;1.52;;;;;;;;;;4859234;29;20108;-69
2022/09/29 07:24:34;;;;;;;4.32;1.33;;;;;;;;;;4860017;29;20029;-63
2022/09/29 07:27:00;;;;;;;6.18;1.60;;;;;;;;;;4859682;29;20084;-64
2022/09/29 07:29:29;;;;;;;6.85;1.67;;;;;;;;;;4859613;29;20483;-63
2022/09/29 07:31:55;;;;;;;3.30;1.50;;;;;;;;;;4859652;29;20033;-63
2022/09/29 07:34:21;;;;;;;7.03;1.80;;;;;;;;;;4859124;29;20045;-63
2022/09/29 07:36:48;;;;;;;6.50;1.77;;;;;;;;;;4859228;29;20034;-63
2022/09/29 07:39:14;;;;;;;6.75;1.85;;;;;;;;;;4859277;29;20114;-63
2022/09/29 07:41:40;;;;;;;7.53;1.70;;;;;;;;;;4858899;29;20557;-63
2022/09/29 07:44:06;;;;;;;5.25;1.33;;;;;;;;;;4859406;29;20390;-67
2022/09/29 07:46:32;;;;;;;9.90;1.80;;;;;;;;;;4859308;29;20029;-63
2022/09/29 07:48:58;;;;;;;5.13;1.35;;;;;;;;;;4859250;29;20044;-63
2022/09/29 07:51:24;;;;;;;6.53;1.63;;;;;;;;;;4859221;29;20034;-63
2022/09/29 07:53:50;;;;;;;5.82;1.48;;;;;;;;;;4841764;29;20037;-62
2022/09/29 07:56:20;;;;;;;6.82;1.40;;;;;;;;;;4858940;29;20061;-62
2022/09/29 07:58:48;;;;;;;7.53;1.45;;;;;;;;;;4858854;29;20087;-62
2022/09/29 08:01:15;;;;;;;6.55;1.50;;;;;;;;;;4858899;29;20029;-63
2022/09/29 08:03:42;;;;;;;7.57;1.20;;;;;;;;;;4858303;29;20053;-61
2022/09/29 08:06:09;;;;;;;4.47;1.10;;;;;;;;;;4858762;29;20342;-62
2022/09/29 08:08:36;;;;;;;5.22;1.50;;;;;;;;;;4858487;29;20033;-64
2022/09/29 08:11:03;;;;;;;4.03;1.23;;;;;;;;;;4858553;29;20390;-65
2022/09/29 08:13:30;;;;;;;4.50;1.27;;;;;;;;;;4858025;29;20108;-64
2022/09/29 08:15:59;;;;;;;4.50;1.63;;;;;;;;;;4858195;29;20117;-64
2022/09/29 08:18:30;;;;;;;4.72;1.85;;;;;;;;;;4858826;29;20438;-63
2022/09/29 08:20:56;;;;;;;6.25;1.92;;;;;;;;;;4858520;29;20036;-63
2022/09/29 08:23:22;;;;;;;4.07;1.75;;;;;;;;;;4857965;29;20025;-63
2022/09/29 08:25:49;;;;;;;5.43;1.58;;;;;;;;;;4858035;29;20026;-63
2022/09/29 08:28:15;;;;;;;5.45;1.40;;;;;;;;;;4858413;29;20036;-64
2022/09/29 08:30:41;;;;;;;6.05;1.95;;;;;;;;;;4858443;29;20049;-64
2022/09/29 08:33:13;;;;;;;5.40;1.83;;;;;;;;;;4858225;29;20041;-71
2022/09/29 08:35:39;;;;;;;5.07;2.00;;;;;;;;;;4858247;29;20038;-63
2022/09/29 08:38:05;;;;;;;6.18;1.88;;;;;;;;;;4857971;29;20447;-64
2022/09/29 08:40:31;;;;;;;5.93;2.30;;;;;;;;;;4858299;29;20094;-64
2022/09/29 08:43:04;;;;;;;4.13;1.88;;;;;;;;;;4858306;29;20053;-71
2022/09/29 08:45:37;;;;;;;3.58;1.60;;;;;;;;;;4858412;29;20053;-70
2022/09/29 08:48:10;;;;;;;5.43;1.92;;;;;;;;;;4858047;29;20026;-63
2022/09/29 08:50:57;;;;;;;4.68;1.90;;;;;;;;;;4858241;29;20035;-63
2022/09/29 08:53:24;;;;;;;7.13;1.80;;;;;;;;;;4858173;29;20029;-63
2022/09/29 08:56:01;;;;;;;4.93;1.90;;;;;;;;;;4858266;29;20041;-63
2022/09/29 08:58:28;;;;;;;7.43;2.30;;;;;;;;;;4858250;29;20033;-64
2022/09/29 09:01:13;;;;;;;7.45;2.38;;;;;;;;;;4857978;29;20418;-62
2022/09/29 09:03:58;;;;;;;4.43;1.65;;;;;;;;;;4857571;29;20094;-62
2022/09/29 09:06:33;;;;;;;7.55;2.00;;;;;;;;;;4857833;29;20048;-62
2022/09/29 09:09:18;;;;;;;4.38;1.70;;;;;;;;;;4858158;29;20510;-67
2022/09/29 09:11:52;;;;;;;4.05;1.50;;;;;;;;;;4858084;29;20030;-63
2022/09/29 09:14:37;;;;;;;6.88;2.08;;;;;;;;;;4857984;29;20363;-63
2022/09/29 09:17:25;;;;;;;3.72;1.48;;;;;;;;;;4840524;29;20402;-64
2022/09/29 09:19:58;;;;;;;3.53;1.20;;;;;;;;;;4848576;29;20057;-65
2022/09/29 09:22:24;;;;;;;7.00;1.80;;;;;;;;;;4858086;29;20390;-64
2022/09/29 09:25:03;;;;;;;8.07;1.73;;;;;;;;;;4860728;29;20057;-65
2022/09/29 09:27:39;;;;;;;7.20;1.80;;;;;;;;;;4844388;29;20046;-65
2022/09/29 09:30:12;;;;;;;8.13;1.73;;;;;;;;;;4861290;29;20030;-64
2022/09/29 09:32:42;;;;;;;9.90;2.17;;;;;;;;;;4861347;29;20033;-65
2022/09/29 09:35:17;;;;;;;6.68;1.55;;;;;;;;;;4859697;29;20052;-65
2022/09/29 09:37:44;;;;;;;4.50;1.73;;;;;;;;;;4841030;29;20062;-65
2022/09/29 09:40:13;;;;;;;10.63;1.77;;;;;;;;;;4858579;29;20506;-69
2022/09/29 09:42:42;;;;;;;3.97;1.50;;;;;;;;;;4844659;29;20517;-72
2022/09/29 09:45:14;;;;;;;5.28;1.40;;;;;;;;;;4861307;29;20128;-71
2022/09/29 09:47:42;;;;;;;2.63;1.30;;;;;;;;;;4844375;29;20120;-69
2022/09/29 09:50:18;;;;;;;6.47;1.90;;;;;;;;;;4861067;29;20103;-73
2022/09/29 09:52:44;;;;;;;5.45;1.20;;;;;;;;;;4861070;29;20086;-65
2022/09/29 09:55:15;;;;;;;6.43;1.25;;;;;;;;;;4861153;29;20033;-71
2022/09/29 09:57:47;;;;;;;4.25;1.63;;;;;;;;;;4843755;29;20037;-64
2022/09/29 10:00:13;;;;;;;;;;;;;;;;;;4861356;29;20151;-64
2022/09/29 10:02:43;;;;;;;6.50;1.80;;;;;;;;;;4860881;29;19919;-64
2022/09/29 10:05:13;;;;;;;5.43;1.63;;;;;;;;;;4861016;29;20037;-65
2022/09/29 10:07:39;;;;;;;6.40;2.08;;;;;;;;;;4860892;29;20029;-64
2022/09/29 10:10:13;;;;;;;3.80;1.60;;;;;;;;;;4860943;29;20124;-70
2022/09/29 10:12:39;;;;;;;6.47;2.25;;;;;;;;;;4860637;29;20040;-64
2022/09/29 10:15:15;;;;;;;6.10;1.63;;;;;;;;;;4860217;29;20133;-64
2022/09/29 10:17:43;;;;;;;3.80;1.40;;;;;;;;;;4860379;29;20041;-64
2022/09/29 10:20:09;;;;;;;5.93;1.95;;;;;;;;;;4860838;29;20033;-64
2022/09/29 10:22:35;;;;;;;7.25;1.83;;;;;;;;;;4860460;29;20571;-68
2022/09/29 10:25:14;;;;;;;4.95;1.90;;;;;;;;;;4860308;29;20037;-66
2022/09/29 10:27:41;;;;;;;5.25;1.50;;;;;;;;;;4860324;29;20021;-65
2022/09/29 10:30:22;;;;;;;10.68;1.80;;;;;;;;;;4860397;29;20033;-71
2022/09/29 10:32:49;;;;;;;5.93;1.80;;;;;;;;;;4859957;29;20037;-65
2022/09/29 10:35:22;;;;;;;7.47;1.60;;;;;;;;;;4859400;29;20501;-64
2022/09/29 10:37:59;;;;;;;4.88;1.63;;;;;;;;;;4859888;29;20037;-64
2022/09/29 10:40:25;;;;;;;7.05;1.38;;;;;;;;;;4860208;29;20048;-64
2022/09/29 10:42:52;;;;;;;6.57;1.48;;;;;;;;;;4860241;29;20033;-64
2022/09/29 10:45:21;;;;;;;5.90;1.70;;;;;;;;;;4860293;29;20561;-64
2022/09/29 10:47:48;;;;;;;3.33;1.40;;;;;;;;;;4860260;29;20124;-71
2022/09/29 10:50:21;;;;;;;5.50;1.50;;;;;;;;;;4843655;29;20112;-64
2022/09/29 10:52:46;;;;;;;;;;;;;;;;;;4843873;29;20029;-64
2022/09/29 10:55:17;;;;;;;5.78;1.40;;;;;;;;;;4860128;29;20480;-63
2022/09/29 10:57:45;;;;;;;4.75;1.35;;;;;;;;;;4860103;29;20033;-64
2022/09/29 11:00:30;;;;;;;4.75;1.60;;;;;;;;;;4859962;29;20109;-64
2022/09/29 11:03:08;;;;;;;5.22;1.40;;;;;;;;;;4859712;29;20117;-64
2022/09/29 11:05:35;;;;;;;4.90;1.50;;;;;;;;;;4859797;29;20069;-64
2022/09/29 11:08:02;;;;;;;3.40;1.20;;;;;;;;;;4859855;29;20029;-64
2022/09/29 11:10:31;;;;;;;3.92;1.58;;;;;;;;;;4859685;29;20061;-70
2022/09/29 11:12:59;;;;;;;6.00;1.83;;;;;;;;;;4859720;29;20030;-65
2022/09/29 11:15:29;;;;;;;5.70;1.40;;;;;;;;;;4859667;29;20453;-64
2022/09/29 11:17:56;;;;;;;6.07;1.50;;;;;;;;;;4859815;29;20564;-64
2022/09/29 11:20:24;;;;;;;6.65;1.95;;;;;;;;;;4859651;29;20037;-64
2022/09/29 11:22:50;;;;;;;5.47;1.50;;;;;;;;;;4859900;29;20161;-74
2022/09/29 11:25:21;;;;;;;7.50;1.60;;;;;;;;;;4843334;29;20026;-65
2022/09/29 11:28:16;;;;;;;6.32;1.38;;;;;;;;;;4859421;29;20033;-64
2022/09/29 11:30:52;;;;;;;7.00;1.67;;;;;;;;;;4783655;30;20062;-72
2022/09/29 11:33:24;;;;;;;5.28;1.42;;;;;;;;;;4789294;29;20031;-70
2022/09/29 11:35:59;;;;;;;5.65;1.65;;;;;;;;;;4797436;29;20576;-68
2022/09/29 11:38:25;;;;;;;5.78;1.63;;;;;;;;;;4801933;29;20046;-65
2022/09/29 11:40:51;;;;;;;5.53;1.30;;;;;;;;;;4801445;29;20404;-64
2022/09/29 11:43:35;;;;;;;4.90;1.40;;;;;;;;;;4801800;29;20039;-64
2022/09/29 11:46:11;;;;;;;6.22;2.22;;;;;;;;;;4800140;29;20039;-66
2022/09/29 11:48:53;;;;;;;5.60;1.70;;;;;;;;;;4801346;29;20576;-67
2022/09/29 11:51:33;;;;;;;7.25;2.00;;;;;;;;;;4800692;29;20046;-65
2022/09/29 11:54:02;;;;;;;7.95;1.73;;;;;;;;;;4786102;29;20509;-67
2022/09/29 11:56:31;;;;;;;6.18;1.83;;;;;;;;;;4783018;30;20088;-65
2022/09/29 11:59:08;;;;;;;3.90;1.80;;;;;;;;;;4783923;30;20163;-64
2022/09/29 12:01:45;;;;;;;7.45;2.30;;;;;;;;;;4783548;30;20039;-66
2022/09/29 12:04:14;;;;;;;6.13;1.92;;;;;;;;;;4783332;30;20056;-66
2022/09/29 12:06:43;;;;;;;3.95;1.30;;;;;;;;;;4806876;29;20052;-66
2022/09/29 12:09:21;;;;;;;5.40;1.40;;;;;;;;;;4858544;29;20514;-65
2022/09/29 12:11:54;;;;;;;2.90;1.20;;;;;;;;;;4857734;29;20037;-66
2022/09/29 12:14:28;;;;;;;4.35;1.70;;;;;;;;;;4858776;29;20057;-67
2022/09/29 12:16:58;;;;;;;6.28;2.10;;;;;;;;;;4858536;29;20057;-66
2022/09/29 12:19:27;;;;;;;7.05;1.73;;;;;;;;;;4858688;29;20034;-68
2022/09/29 12:21:55;;;;;;;5.43;1.50;;;;;;;;;;4858488;29;20033;-65
2022/09/29 12:24:27;;;;;;;5.93;1.67;;;;;;;;;;4858704;29;20026;-67
2022/09/29 12:26:53;;;;;;;;;;;;;;;;;;4858890;29;20802;-67
2022/09/29 12:29:39;;;;;;;7.57;2.13;;;;;;;;;;4859071;29;19912;-67
2022/09/29 12:32:11;;;;;;;6.65;2.13;;;;;;;;;;4858345;29;20494;-65
2022/09/29 12:34:49;;;;;;;5.65;2.78;;;;;;;;;;4858755;29;20175;-66
2022/09/29 12:37:33;;;;;;;5.55;2.15;;;;;;;;;;4858215;29;20024;-64
2022/09/29 12:40:11;;;;;;;7.45;2.15;;;;;;;;;;4858378;29;20029;-65
2022/09/29 12:42:45;;;;;;;4.85;2.20;;;;;;;;;;4858222;29;20040;-65
2022/09/29 12:45:19;;;;;;;8.07;2.30;;;;;;;;;;4858258;29;20034;-65
2022/09/29 12:48:01;;;;;;;8.68;2.13;;;;;;;;;;4858405;29;20508;-64
2022/09/29 12:50:27;;;;;;;9.73;2.38;;;;;;;;;;4858481;29;20040;-67
2022/09/29 12:53:12;;;;;;;5.32;2.10;;;;;;;;;;4858701;29;20030;-65
2022/09/29 12:55:43;;;;;;;7.55;2.25;;;;;;;;;;4858570;29;20403;-69
2022/09/29 12:58:13;;;;;;;11.17;2.73;;;;;;;;;;4858295;29;20443;-66
2022/09/29 13:00:40;;;;;;;6.63;2.10;;;;;;;;;;4862359;29;20021;-65
2022/09/29 13:03:25;;;;;;;10.35;2.75;;;;;;;;;;4861300;29;20060;-65
2022/09/29 13:05:51;;;;;;;12.32;2.65;;;;;;;;;;4861800;29;20077;-64
2022/09/29 13:08:29;;;;;;;8.40;2.10;;;;;;;;;;4861616;29;20041;-66
2022/09/29 13:10:58;;;;;;;7.53;2.00;;;;;;;;;;4861927;29;20454;-66
2022/09/29 13:13:33;;;;;;;6.68;2.30;;;;;;;;;;4861663;29;20573;-65
2022/09/29 13:16:18;;;;;;;6.47;2.45;;;;;;;;;;4861326;29;20087;-67
2022/09/29 13:19:03;;;;;;;7.93;2.10;;;;;;;;;;4861603;29;20026;-65
2022/09/29 13:21:32;;;;;;;7.60;2.40;;;;;;;;;;4844245;29;20047;-67
2022/09/29 13:24:01;;;;;;;12.52;2.80;;;;;;;;;;4861528;29;20036;-65
2022/09/29 13:26:33;;;;;;;11.27;3.00;;;;;;;;;;4862094;29;20433;-66
2022/09/29 13:29:00;;;;;;;;;;;;;;;;;;4862324;29;20053;-66
2022/09/29 13:31:31;;;;;;;7.45;2.83;;;;;;;;;;4861918;29;19908;-66
2022/09/29 13:34:00;;;;;;;7.30;2.78;;;;;;;;;;4861195;29;20090;-65
2022/09/29 13:36:35;;;;;;;11.15;3.00;;;;;;;;;;4861527;29;20064;-68
2022/09/29 13:39:01;;;;;;;7.03;2.70;;;;;;;;;;4861538;29;20048;-65
2022/09/29 13:41:30;;;;;;;11.15;3.17;;;;;;;;;;4861421;29;20038;-69
2022/09/29 13:43:56;;;;;;;4.43;2.03;;;;;;;;;;4861612;29;20026;-64
2022/09/29 13:46:26;;;;;;;7.63;2.50;;;;;;;;;;4861303;29;20030;-65
2022/09/29 13:48:54;;;;;;;9.27;2.40;;;;;;;;;;4861433;29;20035;-68
2022/09/29 13:51:27;;;;;;;9.30;2.78;;;;;;;;;;4861326;29;20025;-65
2022/09/29 13:54:13;;;;;;;8.65;2.42;;;;;;;;;;4861304;29;20076;-64
2022/09/29 13:56:39;;;;;;;7.35;2.30;;;;;;;;;;4861078;29;20049;-66
2022/09/29 13:59:13;;;;;;;5.38;2.25;;;;;;;;;;4861183;29;20108;-66
2022/09/29 14:01:39;;;;;;;5.47;2.42;;;;;;;;;;4861132;29;20112;-64
2022/09/29 14:04:23;;;;;;;5.57;2.15;;;;;;;;;;4860927;29;20056;-65
2022/09/29 14:06:50;;;;;;;6.13;2.10;;;;;;;;;;4860889;29;20041;-64
2022/09/29 14:09:18;;;;;;;7.32;1.95;;;;;;;;;;4860951;29;20044;-64
2022/09/29 14:11:51;;;;;;;4.35;1.80;;;;;;;;;;4858798;29;20529;-67
2022/09/29 14:14:17;;;;;;;5.97;2.40;;;;;;;;;;4859919;29;20045;-62
2022/09/29 14:16:53;;;;;;;7.28;2.30;;;;;;;;;;4860770;29;20066;-64
2022/09/29 14:19:19;;;;;;;6.40;2.00;;;;;;;;;;4860773;29;20033;-66
2022/09/29 14:21:53;;;;;;;4.55;2.10;;;;;;;;;;4860802;29;20142;-65
2022/09/29 14:24:40;;;;;;;6.22;2.10;;;;;;;;;;4858434;29;20860;-64
2022/09/29 14:27:29;;;;;;;7.43;2.00;;;;;;;;;;4862503;29;20025;-63
2022/09/29 14:30:01;;;;;;;9.05;2.00;;;;;;;;;;4860916;29;20074;-65
2022/09/29 14:32:46;;;;;;;11.77;2.50;;;;;;;;;;4850224;29;20045;-64
2022/09/29 14:35:15;;;;;;;5.78;1.85;;;;;;;;;;4862299;29;20445;-67
2022/09/29 14:37:42;;;;;;;9.20;1.80;;;;;;;;;;4859901;29;20033;-67
2022/09/29 14:40:27;;;;;;;6.28;2.13;;;;;;;;;;4859698;29;20034;-64
2022/09/29 14:43:06;;;;;;;6.63;2.35;;;;;;;;;;4859485;29;20026;-63
2022/09/29 14:51:57;;;;;;;5.60;1.85;;;;;;;;;;4857656;29;20082;-63
2022/09/29 14:54:29;;;;;;;6.97;2.20;;;;;;;;;;4859159;29;21355;-64
2022/09/29 14:57:22;;;;;;;4.20;1.80;;;;;;;;;;4858324;29;20029;-67
2022/09/29 15:00:11;;;;;;;9.32;1.95;;;;;;;;;;4843250;29;20080;-63
2022/09/29 15:02:41;;;;;;;7.43;1.95;;;;;;;;;;4852287;29;20041;-65
2022/09/29 15:05:15;;;;;;;8.68;2.20;;;;;;;;;;4859459;29;20061;-65
2022/09/29 15:07:41;;;;;;;5.32;2.20;;;;;;;;;;4858926;29;20050;-64
2022/09/29 15:10:19;;;;;;;8.20;2.38;;;;;;;;;;4859328;29;20045;-63
2022/09/29 15:12:49;;;;;;;5.40;2.55;;;;;;;;;;4856901;29;20017;-64
2022/09/29 15:15:41;;;;;;;6.50;1.90;;;;;;;;;;4859498;29;20080;-62
2022/09/29 15:18:16;;;;;;;6.00;2.60;;;;;;;;;;4855878;29;20105;-64
2022/09/29 15:20:53;;;;;;;8.45;2.80;;;;;;;;;;4859665;29;20029;-63
2022/09/29 15:23:19;;;;;;;7.13;2.78;;;;;;;;;;4859083;29;20117;-71
2022/09/29 15:25:46;;;;;;;6.00;2.30;;;;;;;;;;4858720;29;20120;-63
2022/09/29 15:28:15;;;;;;;8.13;2.53;;;;;;;;;;4875357;29;20370;-62
2022/09/29 15:30:41;;;;;;;7.10;2.60;;;;;;;;;;4877942;29;20033;-64
2022/09/29 15:33:21;;;;;;;8.88;2.80;;;;;;;;;;4876228;29;20028;-64
2022/09/29 15:35:51;;;;;;;9.18;3.28;;;;;;;;;;4858394;29;20165;-68
2022/09/29 15:38:17;;;;;;;10.85;3.78;;;;;;;;;;4859198;29;20078;-65
2022/09/29 15:40:44;;;;;;;8.95;3.75;;;;;;;;;;4859336;29;20033;-61
2022/09/29 15:43:26;;;;;;;9.88;3.53;;;;;;;;;;4859144;29;20112;-66
2022/09/29 15:45:58;;;;;;;9.85;3.20;;;;;;;;;;4842226;29;20434;-66
2022/09/29 15:48:24;;;;;;;8.75;2.83;;;;;;;;;;4858792;29;20026;-66
2022/09/29 15:50:52;;;;;;;11.20;3.83;;;;;;;;;;4859138;29;20472;-64
2022/09/29 15:53:18;;;;;;;8.45;3.13;;;;;;;;;;4859122;29;20022;-66
2022/09/29 15:55:45;;;;;;;9.25;3.08;;;;;;;;;;4859686;29;20068;-67
2022/09/29 15:58:26;;;;;;;8.90;2.90;;;;;;;;;;4858843;29;20057;-66
2022/09/29 16:01:01;;;;;;;9.32;3.13;;;;;;;;;;4857848;29;20113;-62
2022/09/29 16:03:28;;;;;;;5.18;2.70;;;;;;;;;;4857472;29;20581;-62
2022/09/29 16:06:01;;;;;;;5.15;2.40;;;;;;;;;;4858800;29;20114;-62
2022/09/29 16:08:27;;;;;;;9.98;2.90;;;;;;;;;;4859078;29;20382;-62
2022/09/29 16:10:59;;;;;;;9.05;3.08;;;;;;;;;;4858740;29;20048;-62
2022/09/29 16:13:31;;;;;;;8.75;3.25;;;;;;;;;;4858698;29;20030;-68
2022/09/29 16:15:59;;;;;;;7.88;3.08;;;;;;;;;;4858696;29;20051;-62
2022/09/29 16:18:25;;;;;;;11.43;2.80;;;;;;;;;;4858580;29;20033;-66
2022/09/29 16:20:52;;;;;;;8.35;3.00;;;;;;;;;;4858424;29;20030;-69
2022/09/29 16:23:24;;;;;;;10.85;3.00;;;;;;;;;;4858531;29;20068;-70
2022/09/29 16:26:20;;;;;;;8.80;3.10;;;;;;;;;;4858391;29;20040;-65
2022/09/29 16:29:01;;;;;;;11.68;3.90;;;;;;;;;;4838448;29;20502;-68
2022/09/29 16:31:28;;;;;;;13.25;3.85;;;;;;;;;;4858417;29;20045;-68
2022/09/29 16:33:55;;;;;;;9.27;3.45;;;;;;;;;;4857290;29;20482;-63
2022/09/29 16:36:23;;;;;;;12.68;4.30;;;;;;;;;;4858317;29;20085;-61
2022/09/29 16:38:51;;;;;;;7.22;3.50;;;;;;;;;;4857372;29;20091;-64
2022/09/29 16:41:19;;;;;;;10.07;3.85;;;;;;;;;;4858066;29;20030;-68
2022/09/29 16:43:46;;;;;;;10.13;4.00;;;;;;;;;;4858010;29;20439;-61
2022/09/29 16:46:22;;;;;;;7.70;2.95;;;;;;;;;;4858191;29;20021;-66
2022/09/29 16:48:49;;;;;;;10.68;3.42;;;;;;;;;;4858543;29;20539;-61
2022/09/29 16:51:18;;;;;;;10.35;3.20;;;;;;;;;;4858400;29;20109;-61
2022/09/29 16:53:44;;;;;;;8.65;3.08;;;;;;;;;;4858492;29;20029;-61
2022/09/29 16:56:19;;;;;;;6.20;3.20;;;;;;;;;;4858381;29;20046;-60
2022/09/29 16:59:01;;;;;;;8.45;3.40;;;;;;;;;;4858102;29;20033;-61
2022/09/29 17:01:27;;;;;;;;;;;;;;;;;;4858645;29;20475;-66
2022/09/29 17:03:53;;;;;;;9.18;3.17;;;;;;;;;;4857297;29;19924;-66
2022/09/29 17:06:19;;;;;;;8.55;3.13;;;;;;;;;;4858273;29;20026;-60
2022/09/29 17:08:45;;;;;;;11.00;3.20;;;;;;;;;;4857044;29;20100;-63
2022/09/29 17:11:11;;;;;;;10.20;3.20;;;;;;;;;;4857034;29;20057;-61
2022/09/29 17:13:38;;;;;;;7.00;3.53;;;;;;;;;;4857032;29;20546;-61
2022/09/29 17:16:06;;;;;;;9.13;3.42;;;;;;;;;;4857945;29;20499;-60
2022/09/29 17:18:32;;;;;;;7.85;3.08;;;;;;;;;;4857601;29;20046;-63
2022/09/29 17:20:58;;;;;;;10.55;3.35;;;;;;;;;;4858208;29;20033;-61
2022/09/29 17:23:24;;;;;;;6.95;3.22;;;;;;;;;;4857362;29;20029;-61
2022/09/29 17:25:51;;;;;;;9.70;3.45;;;;;;;;;;4857724;29;20042;-65
2022/09/29 17:28:23;;;;;;;10.43;4.22;;;;;;;;;;4857872;29;20030;-66
2022/09/29 17:30:49;;;;;;;;;;;;;;;;;;4858170;29;20087;-60
2022/09/29 17:33:16;;;;;;;11.65;3.55;;;;;;;;;;4856621;29;20420;-61
2022/09/29 17:35:44;;;;;;;7.75;3.35;;;;;;;;;;4857363;29;20042;-69
2022/09/29 17:38:11;;;;;;;7.95;3.10;;;;;;;;;;4857200;29;20030;-64
2022/09/29 17:40:56;;;;;;;8.25;3.10;;;;;;;;;;4856037;29;20033;-67
2022/09/29 17:43:23;;;;;;;6.95;2.90;;;;;;;;;;4857462;29;20120;-68
2022/09/29 17:45:49;;;;;;;17.13;3.30;;;;;;;;;;4859733;29;20033;-61
2022/09/29 17:48:18;;;;;;;13.05;4.50;;;;;;;;;;4860890;29;20466;-69
2022/09/29 17:50:46;;;;;;;10.40;3.28;;;;;;;;;;4860637;29;20075;-64
2022/09/29 17:53:15;;;;;;;9.40;3.45;;;;;;;;;;4860814;29;20026;-62
2022/09/29 17:55:42;;;;;;;6.43;2.90;;;;;;;;;;4860553;29;20124;-62
2022/09/29 17:58:10;;;;;;;9.23;4.60;;;;;;;;;;4860572;29;20029;-69
2022/09/29 18:00:37;;;;;;;11.15;3.47;;;;;;;;;;4860435;29;20032;-62
2022/09/29 18:03:14;;;;;;;10.90;3.80;;;;;;;;;;4860110;29;20053;-61
2022/09/29 18:05:41;;;;;;;11.43;4.15;;;;;;;;;;4860573;29;20041;-62
2022/09/29 18:08:10;;;;;;;15.77;3.35;;;;;;;;;;4842155;29;20022;-69
2022/09/29 18:10:51;;;;;;;7.68;2.70;;;;;;;;;;4841978;29;20057;-67
2022/09/29 18:13:17;;;;;;;8.93;2.80;;;;;;;;;;4841570;29;20129;-70
2022/09/29 18:15:44;;;;;;;7.90;3.38;;;;;;;;;;4842233;29;20073;-61
2022/09/29 18:18:11;;;;;;;8.57;3.28;;;;;;;;;;4847080;29;20627;-62
2022/09/29 18:20:38;;;;;;;8.68;2.30;;;;;;;;;;4860387;29;20061;-70
2022/09/29 18:23:05;;;;;;;5.68;2.30;;;;;;;;;;4860159;29;20437;-68
2022/09/29 18:25:32;;;;;;;6.43;2.25;;;;;;;;;;4860288;29;20157;-61
2022/09/29 18:27:58;;;;;;;8.35;2.30;;;;;;;;;;4860355;29;20665;-66
2022/09/29 18:30:27;;;;;;;5.75;2.45;;;;;;;;;;4860192;29;20030;-61
2022/09/29 18:32:57;;;;;;;6.75;2.70;;;;;;;;;;4859849;29;20044;-65
2022/09/29 18:35:24;;;;;;;6.78;2.70;;;;;;;;;;4859975;29;20030;-62
2022/09/29 18:37:51;;;;;;;6.07;2.58;;;;;;;;;;4860148;29;20041;-66
2022/09/29 18:40:17;;;;;;;10.82;3.65;;;;;;;;;;4859735;29;20450;-62
2022/09/29 18:42:44;;;;;;;8.93;3.65;;;;;;;;;;4859478;29;20141;-68
2022/09/29 18:45:24;;;;;;;10.50;3.53;;;;;;;;;;4858836;29;20030;-62
2022/09/29 18:47:50;;;;;;;9.55;4.18;;;;;;;;;;4852683;29;20438;-69
2022/09/29 18:50:18;;;;;;;4.88;2.30;;;;;;;;;;4859158;29;20106;-69
2022/09/29 18:52:46;;;;;;;10.40;3.50;;;;;;;;;;4858072;29;20021;-66
2022/09/29 18:55:13;;;;;;;12.05;3.60;;;;;;;;;;4857870;29;20048;-69
2022/09/29 18:57:40;;;;;;;9.70;3.22;;;;;;;;;;4858833;29;20382;-64
2022/09/29 19:00:09;;;;;;;8.18;3.03;;;;;;;;;;4856983;29;20388;-67
2022/09/29 19:02:36;;;;;;;7.35;2.95;;;;;;;;;;4857869;29;20026;-67
2022/09/29 19:05:02;;;;;;;12.13;4.55;;;;;;;;;;4857857;29;20442;-61
2022/09/29 19:07:28;;;;;;;7.60;3.00;;;;;;;;;;4859478;29;20033;-61
2022/09/29 19:09:54;;;;;;;11.25;3.60;;;;;;;;;;4859336;29;20116;-70
2022/09/29 19:12:25;;;;;;;8.00;3.28;;;;;;;;;;4858974;29;20494;-65
2022/09/29 19:14:52;;;;;;;10.80;3.80;;;;;;;;;;4859740;29;20470;-69
2022/09/29 19:17:22;;;;;;;9.70;3.65;;;;;;;;;;4859179;29;20037;-66
2022/09/29 19:19:48;;;;;;;13.93;5.20;;;;;;;;;;4859621;29;20492;-70
2022/09/29 19:22:14;;;;;;;13.35;4.63;;;;;;;;;;4859016;29;20025;-66
2022/09/29 19:24:40;;;;;;;6.97;3.40;;;;;;;;;;4859524;29;20092;-61
2022/09/29 19:27:06;;;;;;;9.93;4.53;;;;;;;;;;4859365;29;20037;-68
2022/09/29 19:29:32;;;;;;;11.48;4.13;;;;;;;;;;4859413;29;20037;-61
2022/09/29 19:31:59;;;;;;;13.95;4.20;;;;;;;;;;4858967;29;20030;-65
2022/09/29 19:34:25;;;;;;;9.30;4.90;;;;;;;;;;4858914;29;20489;-61
2022/09/29 19:36:52;;;;;;;13.30;4.10;;;;;;;;;;4859214;29;20041;-61
2022/09/29 19:39:18;;;;;;;12.15;5.55;;;;;;;;;;4858876;29;20501;-67
2022/09/29 19:41:44;;;;;;;13.73;6.22;;;;;;;;;;4858791;29;20034;-65
2022/09/29 19:44:10;;;;;;;15.20;6.47;;;;;;;;;;4858318;29;20026;-65
2022/09/29 19:46:36;;;;;;;11.65;5.35;;;;;;;;;;4858835;29;20132;-63
2022/09/29 19:49:03;;;;;;;14.15;5.57;;;;;;;;;;4859248;29;20060;-66
2022/09/29 19:54:15;;;;;;;13.90;5.82;;;;;;;;;;4858823;29;20074;-62
2022/09/29 19:56:43;;;;;;;17.98;7.88;;;;;;;;;;4858527;29;20105;-62
2022/09/29 19:59:13;;;;;;;12.65;5.90;;;;;;;;;;4858958;29;20025;-62
2022/09/29 20:01:39;;;;;;;16.55;5.95;;;;;;;;;;4857876;29;20042;-67
2022/09/29 20:04:05;;;;;;;15.45;5.55;;;;;;;;;;4858419;29;20046;-67
2022/09/29 20:06:34;;;;;;;11.05;5.30;;;;;;;;;;4858975;29;20034;-65
2022/09/29 20:09:01;;;;;;;11.95;5.82;;;;;;;;;;4855572;29;20069;-64
2022/09/29 20:11:30;;;;;;;11.88;5.78;;;;;;;;;;4856879;29;20018;-66
2022/09/29 20:13:59;;;;;;;12.02;4.70;;;;;;;;;;4858289;29;20546;-69
2022/09/29 20:16:25;;;;;;;11.85;5.38;;;;;;;;;;4858518;29;20159;-66